Time;durP1;ratioP1;P1;durP2;ratioP2;P2;SDS_P1;SDS_P2;PMS_P1;PMS_P2;Temp;Humidity;BMP_temperature;BMP_pressure;BME280_temperature;BME280_humidity;BME280_pressure;Samples;Min_cycle;Max_cycle;Signal;HPM_P1;HPM_P2
2023/01/25 00:00:03;;;;;;;13.98;9.95;;;;;8.70;103567.00;;;;5076592;28;20194;-75
2023/01/25 00:02:31;;;;;;;13.57;9.00;;;;;8.70;103566.00;;;;5079471;28;20195;-75
2023/01/25 00:04:58;;;;;;;16.10;9.88;;;;;8.70;103564.00;;;;5073833;28;20201;-75
2023/01/25 00:07:26;;;;;;;14.85;10.02;;;;;8.70;103555.00;;;;5089529;28;20195;-75
2023/01/25 00:09:54;;;;;;;13.75;9.23;;;;;8.70;103559.00;;;;5086846;28;20193;-75
2023/01/25 00:12:21;;;;;;;13.32;9.65;;;;;8.70;103550.00;;;;5079061;28;20686;-75
2023/01/25 00:14:49;;;;;;;15.63;11.05;;;;;8.70;103549.00;;;;5081537;28;20199;-75
2023/01/25 00:17:16;;;;;;;14.98;10.05;;;;;8.60;103545.00;;;;5086690;28;20571;-75
2023/01/25 00:19:43;;;;;;;15.82;10.82;;;;;8.60;103556.00;;;;5080256;28;20209;-75
2023/01/25 00:22:10;;;;;;;14.85;10.23;;;;;8.70;103549.00;;;;5077016;28;20202;-75
2023/01/25 00:24:39;;;;;;;18.05;11.48;;;;;8.60;103547.00;;;;5085883;28;20205;-75
2023/01/25 00:27:07;;;;;;;16.20;10.45;;;;;8.60;103543.00;;;;5070281;28;20202;-75
2023/01/25 00:29:35;;;;;;;15.55;10.48;;;;;8.60;103540.00;;;;5071868;28;20199;-75
2023/01/25 00:32:28;;;;;;;14.13;9.70;;;;;8.60;103542.00;;;;5075439;28;20201;-75
2023/01/25 00:34:56;;;;;;;14.48;10.15;;;;;8.60;103532.00;;;;5072181;28;20371;-75
2023/01/25 00:37:35;;;;;;;15.70;10.02;;;;;8.60;103534.00;;;;5088339;28;20251;-75
2023/01/25 00:40:02;;;;;;;16.80;11.75;;;;;8.60;103534.00;;;;5087888;28;20195;-75
2023/01/25 00:42:31;;;;;;;16.10;11.18;;;;;8.60;103532.00;;;;5080037;28;20199;-75
2023/01/25 00:44:58;;;;;;;14.82;10.02;;;;;8.60;103536.00;;;;5084076;28;20197;-75
2023/01/25 00:47:25;;;;;;;15.82;11.07;;;;;8.60;103529.00;;;;5077319;28;20214;-75
2023/01/25 00:49:53;;;;;;;15.18;10.43;;;;;8.60;103535.00;;;;5090386;28;20190;-75
2023/01/25 00:52:21;;;;;;;17.33;11.63;;;;;8.60;103530.00;;;;5077573;28;20294;-75
2023/01/25 00:54:49;;;;;;;15.45;11.15;;;;;8.60;103520.00;;;;5075865;28;20202;-75
2023/01/25 00:57:16;;;;;;;15.52;10.48;;;;;8.60;103519.00;;;;5080847;28;20206;-75
2023/01/25 00:59:46;;;;;;;15.70;10.55;;;;;8.60;103521.00;;;;5084308;28;20221;-75
2023/01/25 01:02:13;;;;;;;17.95;11.07;;;;;8.60;103521.00;;;;5071980;28;20214;-75
2023/01/25 01:04:41;;;;;;;13.43;9.82;;;;;8.60;103518.00;;;;5069899;28;20669;-75
2023/01/25 01:07:08;;;;;;;17.33;12.00;;;;;8.60;103518.00;;;;5079276;28;20191;-75
2023/01/25 01:09:35;;;;;;;16.45;11.25;;;;;8.50;103517.00;;;;5085870;28;20214;-75
2023/01/25 01:12:03;;;;;;;17.85;11.95;;;;;8.50;103519.00;;;;5072399;28;20194;-75
2023/01/25 01:14:30;;;;;;;15.65;11.00;;;;;8.50;103518.00;;;;5086351;28;20186;-75
2023/01/25 01:16:58;;;;;;;16.42;11.05;;;;;8.50;103521.00;;;;5081580;28;20195;-75
2023/01/25 01:19:26;;;;;;;17.75;12.05;;;;;8.50;103511.00;;;;5077549;28;20229;-75
2023/01/25 01:21:53;;;;;;;15.70;10.50;;;;;8.50;103518.00;;;;5074850;28;20191;-75
2023/01/25 01:24:21;;;;;;;16.45;10.98;;;;;8.50;103519.00;;;;5082159;28;20202;-75
2023/01/25 01:26:48;;;;;;;16.20;10.63;;;;;8.40;103525.00;;;;5078315;28;20187;-75
2023/01/25 01:29:15;;;;;;;14.02;10.07;;;;;8.40;103514.00;;;;5082109;28;20222;-74
2023/01/25 01:31:42;;;;;;;16.48;10.40;;;;;8.40;103526.00;;;;5075446;28;20195;-75
2023/01/25 01:34:13;;;;;;;15.45;10.30;;;;;8.40;103515.00;;;;5080272;28;20673;-75
2023/01/25 01:36:40;;;;;;;14.75;9.80;;;;;8.40;103526.00;;;;5075777;28;20227;-75
2023/01/25 01:39:08;;;;;;;15.52;10.75;;;;;8.40;103522.00;;;;5079456;28;20699;-75
2023/01/25 01:41:36;;;;;;;17.45;12.30;;;;;8.40;103514.00;;;;5075389;28;20202;-74
2023/01/25 01:44:04;;;;;;;16.60;11.25;;;;;8.40;103517.00;;;;5076976;28;20578;-75
2023/01/25 01:46:36;;;;;;;16.20;11.02;;;;;8.40;103518.00;;;;5084064;28;20235;-74
2023/01/25 01:49:10;;;;;;;15.48;11.10;;;;;8.40;103508.00;;;;5087103;28;20273;-75
2023/01/25 01:51:46;;;;;;;14.13;9.35;;;;;8.30;103508.00;;;;5083753;28;20208;-75
2023/01/25 01:54:17;;;;;;;16.27;10.27;;;;;8.40;103507.00;;;;5072177;28;20201;-74
2023/01/25 01:56:52;;;;;;;17.10;11.90;;;;;8.30;103507.00;;;;5076357;28;20195;-75
2023/01/25 01:59:20;;;;;;;15.32;10.13;;;;;8.40;103492.00;;;;5084189;28;20225;-75
2023/01/25 02:01:48;;;;;;;16.60;10.05;;;;;8.40;103503.00;;;;5080840;28;20205;-75
2023/01/25 02:04:18;;;;;;;16.50;11.10;;;;;8.30;103510.00;;;;5084906;28;20198;-75
2023/01/25 02:06:52;;;;;;;16.67;11.38;;;;;8.30;103505.00;;;;5073361;28;20201;-75
2023/01/25 02:09:23;;;;;;;15.20;10.55;;;;;8.30;103504.00;;;;5085000;28;20193;-75
2023/01/25 02:11:52;;;;;;;17.60;10.95;;;;;8.30;103505.00;;;;5079766;28;20194;-75
2023/01/25 02:14:21;;;;;;;16.48;11.23;;;;;8.30;103501.00;;;;5071836;28;20195;-75
2023/01/25 02:16:49;;;;;;;18.20;11.27;;;;;8.30;103498.00;;;;5069632;28;20565;-75
2023/01/25 02:19:26;;;;;;;17.38;10.85;;;;;8.30;103487.00;;;;5083032;28;20218;-75
2023/01/25 02:21:57;;;;;;;15.15;10.35;;;;;8.30;103491.00;;;;5068126;28;20206;-75
2023/01/25 02:24:31;;;;;;;16.55;10.88;;;;;8.30;103495.00;;;;5080680;28;20206;-75
2023/01/25 02:27:00;;;;;;;18.55;11.88;;;;;8.30;103492.00;;;;5071564;28;20195;-75
2023/01/25 02:29:29;;;;;;;16.63;10.77;;;;;8.30;103487.00;;;;5071254;28;20194;-75
2023/01/25 02:32:02;;;;;;;19.27;12.40;;;;;8.30;103484.00;;;;5080835;28;20673;-75
2023/01/25 02:34:29;;;;;;;18.80;12.45;;;;;8.30;103485.00;;;;5070654;28;20194;-75
2023/01/25 02:36:57;;;;;;;18.80;12.57;;;;;8.30;103486.00;;;;5075323;28;20199;-75
2023/01/25 02:39:27;;;;;;;17.60;11.85;;;;;8.30;103481.00;;;;5079784;28;20226;-75
2023/01/25 02:41:54;;;;;;;17.13;11.65;;;;;8.30;103484.00;;;;5081764;28;20207;-75
2023/01/25 02:44:26;;;;;;;16.58;10.80;;;;;8.20;103482.00;;;;5072230;28;20198;-74
2023/01/25 02:46:53;;;;;;;17.13;10.82;;;;;8.30;103483.00;;;;5067749;28;20234;-75
2023/01/25 02:49:21;;;;;;;18.58;11.30;;;;;8.30;103486.00;;;;5075228;28;20680;-75
2023/01/25 02:51:54;;;;;;;15.43;10.15;;;;;8.20;103474.00;;;;5082390;28;20679;-74
2023/01/25 02:54:22;;;;;;;16.20;10.07;;;;;8.20;103472.00;;;;5083670;28;20276;-75
2023/01/25 02:56:50;;;;;;;15.88;10.20;;;;;8.20;103489.00;;;;5070532;28;20194;-75
2023/01/25 02:59:17;;;;;;;16.65;11.02;;;;;8.20;103477.00;;;;5081155;28;20217;-75
2023/01/25 03:01:47;;;;;;;15.90;10.35;;;;;8.20;103468.00;;;;5070573;28;20203;-75
2023/01/25 03:04:14;;;;;;;18.23;11.35;;;;;8.20;103467.00;;;;5073814;28;20575;-75
2023/01/25 03:06:42;;;;;;;16.90;11.43;;;;;8.20;103459.00;;;;5076375;28;20207;-75
2023/01/25 03:09:11;;;;;;;15.68;10.57;;;;;8.20;103462.00;;;;5076249;28;20209;-75
2023/01/25 03:11:38;;;;;;;15.60;10.35;;;;;8.20;103456.00;;;;5076216;28;20206;-75
2023/01/25 03:14:05;;;;;;;18.17;11.65;;;;;8.20;103457.00;;;;5079862;28;20198;-75
2023/01/25 03:16:33;;;;;;;16.33;10.18;;;;;8.20;103450.00;;;;5075788;28;20210;-75
2023/01/25 03:19:01;;;;;;;17.05;11.20;;;;;8.10;103447.00;;;;5072921;28;20210;-75
2023/01/25 03:21:29;;;;;;;15.13;10.13;;;;;8.20;103452.00;;;;5083342;28;20199;-75
2023/01/25 03:23:59;;;;;;;17.55;10.35;;;;;8.20;103445.00;;;;5081425;28;20567;-75
2023/01/25 03:26:27;;;;;;;15.25;10.07;;;;;8.20;103449.00;;;;5078540;28;20213;-75
2023/01/25 03:28:54;;;;;;;18.67;10.82;;;;;8.20;103444.00;;;;5078092;28;20199;-75
2023/01/25 03:31:22;;;;;;;18.35;11.10;;;;;8.20;103445.00;;;;5082492;28;20198;-75
2023/01/25 03:33:49;;;;;;;18.27;12.02;;;;;8.20;103440.00;;;;5088928;28;20198;-74
2023/01/25 03:36:18;;;;;;;19.55;11.52;;;;;8.20;103435.00;;;;5090403;28;20202;-75
2023/01/25 03:38:45;;;;;;;16.08;11.45;;;;;8.20;103430.00;;;;5087499;28;20214;-75
2023/01/25 03:41:13;;;;;;;19.17;11.40;;;;;8.20;103432.00;;;;5074968;28;20659;-75
2023/01/25 03:43:41;;;;;;;16.45;10.75;;;;;8.20;103420.00;;;;5084288;28;20557;-75
2023/01/25 03:46:08;;;;;;;19.23;12.80;;;;;8.20;103419.00;;;;5079846;28;20226;-75
2023/01/25 03:48:35;;;;;;;20.15;12.38;;;;;8.20;103414.00;;;;5090962;28;20281;-75
2023/01/25 03:51:03;;;;;;;17.58;12.30;;;;;8.20;103412.00;;;;5072171;28;20206;-74
2023/01/25 03:53:32;;;;;;;17.73;12.18;;;;;8.20;103412.00;;;;5070777;28;20203;-75
2023/01/25 03:56:02;;;;;;;18.48;11.93;;;;;8.20;103410.00;;;;5076210;28;20240;-75
2023/01/25 03:58:30;;;;;;;18.20;11.98;;;;;8.20;103411.00;;;;5072041;28;20192;-75
2023/01/25 04:00:59;;;;;;;19.15;12.25;;;;;8.20;103417.00;;;;5077530;28;20664;-75
2023/01/25 04:03:28;;;;;;;18.25;11.55;;;;;8.20;103418.00;;;;5081225;28;20191;-75
2023/01/25 04:05:56;;;;;;;17.90;12.27;;;;;8.20;103414.00;;;;5084652;28;20198;-75
2023/01/25 04:08:25;;;;;;;17.40;11.88;;;;;8.10;103419.00;;;;5089647;28;20202;-75
2023/01/25 04:10:56;;;;;;;16.50;10.95;;;;;8.10;103403.00;;;;5079441;28;20213;-75
2023/01/25 04:13:24;;;;;;;16.02;10.48;;;;;8.10;103414.00;;;;5075156;28;20202;-75
2023/01/25 04:15:52;;;;;;;15.82;10.43;;;;;8.10;103413.00;;;;5084146;28;20545;-75
2023/01/25 04:18:20;;;;;;;19.88;13.38;;;;;8.10;103413.00;;;;5081308;28;20209;-75
2023/01/25 04:20:52;;;;;;;18.52;11.65;;;;;8.00;103412.00;;;;5084381;28;20218;-75
2023/01/25 04:23:19;;;;;;;19.15;11.70;;;;;8.00;103412.00;;;;5089424;28;20214;-75
2023/01/25 04:25:55;;;;;;;18.00;12.48;;;;;8.00;103409.00;;;;5089387;28;20201;-75
2023/01/25 04:28:22;;;;;;;16.58;11.50;;;;;8.00;103409.00;;;;5079706;28;20210;-75
2023/01/25 04:30:49;;;;;;;20.15;12.30;;;;;8.00;103410.00;;;;5082934;28;20195;-75
2023/01/25 04:33:17;;;;;;;21.33;13.13;;;;;8.00;103417.00;;;;5082928;28;20194;-75
2023/01/25 04:35:45;;;;;;;20.63;12.80;;;;;8.00;103411.00;;;;5079533;28;20194;-75
2023/01/25 04:38:12;;;;;;;19.60;12.27;;;;;8.00;103403.00;;;;5077901;28;20190;-75
2023/01/25 04:40:40;;;;;;;18.85;12.27;;;;;8.00;103397.00;;;;5080361;28;20215;-75
2023/01/25 04:43:09;;;;;;;19.83;13.43;;;;;8.00;103391.00;;;;5084478;28;20755;-75
2023/01/25 04:45:36;;;;;;;17.98;11.85;;;;;8.00;103391.00;;;;5071548;28;21561;-75
2023/01/25 04:48:08;;;;;;;18.60;12.38;;;;;8.00;103381.00;;;;5081098;28;20202;-75
2023/01/25 04:50:36;;;;;;;17.52;11.90;;;;;7.90;103381.00;;;;5077753;28;20206;-75
2023/01/25 04:53:04;;;;;;;19.13;12.18;;;;;8.00;103383.00;;;;5075089;28;20228;-74
2023/01/25 04:55:32;;;;;;;19.65;12.40;;;;;7.90;103378.00;;;;5069847;28;21162;-74
2023/01/25 04:57:59;;;;;;;20.08;13.18;;;;;7.90;103382.00;;;;5088757;28;20652;-75
2023/01/25 05:00:29;;;;;;;17.80;12.30;;;;;7.90;103370.00;;;;5088924;28;20229;-75
2023/01/25 05:02:56;;;;;;;18.23;12.77;;;;;7.90;103376.00;;;;5079773;28;20691;-75
2023/01/25 05:05:24;;;;;;;18.35;12.38;;;;;7.90;103372.00;;;;5075005;28;20295;-75
2023/01/25 05:07:51;;;;;;;18.35;12.75;;;;;7.90;103375.00;;;;5079694;28;20661;-75
2023/01/25 05:10:18;;;;;;;18.42;12.13;;;;;7.90;103376.00;;;;5074314;28;20213;-75
2023/01/25 05:12:45;;;;;;;19.33;12.85;;;;;7.90;103377.00;;;;5080423;28;20292;-75
2023/01/25 05:15:13;;;;;;;20.65;13.77;;;;;7.90;103376.00;;;;5081568;28;20206;-75
2023/01/25 05:17:42;;;;;;;21.10;12.93;;;;;7.90;103377.00;;;;5077377;28;21028;-75
2023/01/25 05:20:11;;;;;;;19.52;12.65;;;;;7.90;103367.00;;;;5071356;28;20219;-75
2023/01/25 05:22:38;;;;;;;19.50;12.68;;;;;7.90;103376.00;;;;5068998;28;20198;-75
2023/01/25 05:26:59;;;;;;;18.73;12.25;;;;;7.90;103368.00;;;;5072591;28;20202;-74
2023/01/25 05:27:52;;;;;;;18.23;12.27;;;;;7.90;103377.00;;;;5086089;28;20198;-75
2023/01/25 05:30:20;;;;;;;18.90;12.02;;;;;7.90;103364.00;;;;5080604;28;20202;-74
2023/01/25 05:32:49;;;;;;;19.85;13.63;;;;;7.80;103354.00;;;;5081378;28;20194;-74
2023/01/25 05:35:16;;;;;;;17.75;12.02;;;;;7.80;103363.00;;;;5071840;28;20203;-74
2023/01/25 05:37:44;;;;;;;18.75;12.18;;;;;7.80;103361.00;;;;5071087;28;20206;-74
2023/01/25 05:40:12;;;;;;;20.92;12.82;;;;;7.90;103351.00;;;;5074983;28;20730;-75
2023/01/25 05:42:40;;;;;;;21.13;13.70;;;;;7.90;103357.00;;;;5083831;28;20209;-75
2023/01/25 05:45:08;;;;;;;20.15;12.88;;;;;7.90;103359.00;;;;5088665;28;20197;-74
2023/01/25 05:47:35;;;;;;;20.58;13.02;;;;;7.90;103356.00;;;;5076073;28;20214;-75
2023/01/25 05:50:05;;;;;;;20.88;14.25;;;;;7.90;103358.00;;;;5075237;28;20195;-74
2023/01/25 05:52:32;;;;;;;21.70;13.95;;;;;7.90;103353.00;;;;5076115;28;20574;-74
2023/01/25 05:55:00;;;;;;;21.40;13.80;;;;;7.80;103354.00;;;;5072710;28;20687;-74
2023/01/25 05:57:28;;;;;;;21.00;12.88;;;;;7.90;103362.00;;;;5085726;28;20198;-74
2023/01/25 05:59:55;;;;;;;20.17;12.15;;;;;7.80;103365.00;;;;5072829;28;20227;-74
2023/01/25 06:02:23;;;;;;;20.17;12.73;;;;;7.80;103360.00;;;;5076326;28;20201;-74
2023/01/25 06:04:50;;;;;;;20.27;12.27;;;;;7.90;103359.00;;;;5082714;28;20656;-74
2023/01/25 06:07:19;;;;;;;18.60;12.43;;;;;7.80;103363.00;;;;5082393;28;20201;-74
2023/01/25 06:09:46;;;;;;;19.17;12.75;;;;;7.90;103359.00;;;;5068587;28;20206;-74
2023/01/25 06:12:14;;;;;;;19.58;12.50;;;;;7.90;103378.00;;;;5074296;28;20569;-75
2023/01/25 06:14:42;;;;;;;24.65;14.02;;;;;7.90;103376.00;;;;5068527;28;20277;-75
2023/01/25 06:17:10;;;;;;;22.02;13.77;;;;;7.80;103373.00;;;;5072346;28;20224;-75
2023/01/25 06:19:37;;;;;;;20.02;13.45;;;;;7.90;103375.00;;;;5070125;28;20872;-75
2023/01/25 06:22:04;;;;;;;24.40;14.30;;;;;7.90;103373.00;;;;5077509;28;20194;-75
2023/01/25 06:24:33;;;;;;;21.13;13.50;;;;;7.80;103362.00;;;;5071722;28;20229;-75
2023/01/25 06:27:00;;;;;;;21.83;13.85;;;;;7.90;103368.00;;;;5069899;28;20668;-74
2023/01/25 06:29:27;;;;;;;20.20;13.15;;;;;7.80;103368.00;;;;5073823;28;20205;-75
2023/01/25 06:31:55;;;;;;;21.70;13.93;;;;;7.80;103374.00;;;;5084305;28;20198;-76
2023/01/25 06:34:23;;;;;;;21.83;14.00;;;;;7.80;103375.00;;;;5085994;28;20251;-75
2023/01/25 06:36:50;;;;;;;21.42;13.98;;;;;7.80;103373.00;;;;5085838;28;20673;-75
2023/01/25 06:39:19;;;;;;;22.60;14.38;;;;;7.80;103371.00;;;;5078982;28;20195;-74
2023/01/25 06:41:47;;;;;;;23.38;14.55;;;;;7.80;103370.00;;;;5067541;28;20225;-74
2023/01/25 06:44:15;;;;;;;22.13;13.85;;;;;7.90;103373.00;;;;5079576;28;20199;-75
2023/01/25 06:46:42;;;;;;;22.55;14.55;;;;;7.80;103367.00;;;;5072910;28;20230;-74
2023/01/25 06:49:10;;;;;;;22.33;14.55;;;;;7.80;103371.00;;;;5083849;28;20193;-75
2023/01/25 06:51:38;;;;;;;23.58;14.10;;;;;7.80;103368.00;;;;5078393;28;20210;-74
2023/01/25 06:54:05;;;;;;;23.27;14.38;;;;;7.80;103373.00;;;;5080672;28;20199;-74
2023/01/25 06:56:32;;;;;;;21.67;13.95;;;;;7.80;103369.00;;;;5073352;28;20735;-74
2023/01/25 06:59:01;;;;;;;21.70;13.35;;;;;7.80;103366.00;;;;5081374;28;20190;-75
2023/01/25 07:01:29;;;;;;;22.40;13.45;;;;;7.80;103362.00;;;;5081050;28;20225;-74
2023/01/25 07:03:57;;;;;;;21.10;13.77;;;;;7.70;103370.00;;;;5085447;28;20194;-74
2023/01/25 07:06:26;;;;;;;20.23;12.18;;;;;7.70;103374.00;;;;5071025;28;20198;-74
2023/01/25 07:08:53;;;;;;;21.15;13.10;;;;;7.70;103363.00;;;;5082287;28;20202;-74
2023/01/25 07:11:21;;;;;;;20.45;12.52;;;;;7.70;103362.00;;;;5090915;28;20281;-74
2023/01/25 07:13:48;;;;;;;19.80;12.35;;;;;7.70;103354.00;;;;5071589;28;20199;-74
2023/01/25 07:16:19;;;;;;;19.88;12.23;;;;;7.60;103351.00;;;;5071084;28;20210;-74
2023/01/25 07:18:47;;;;;;;17.42;11.73;;;;;7.70;103339.00;;;;5084954;28;20198;-74
2023/01/25 07:21:16;;;;;;;20.25;11.98;;;;;7.60;103349.00;;;;5080568;28;20695;-74
2023/01/25 07:23:44;;;;;;;19.13;12.32;;;;;7.70;103341.00;;;;5074928;28;20307;-74
2023/01/25 07:26:17;;;;;;;18.52;11.77;;;;;7.60;103343.00;;;;5085127;28;20210;-74
2023/01/25 07:28:45;;;;;;;18.10;11.52;;;;;7.60;103338.00;;;;5088609;28;20212;-74
2023/01/25 07:31:14;;;;;;;19.65;12.27;;;;;7.70;103344.00;;;;5071695;28;20206;-74
2023/01/25 07:33:43;;;;;;;22.15;13.27;;;;;7.60;103343.00;;;;5069632;28;20203;-74
2023/01/25 07:36:11;;;;;;;21.90;13.82;;;;;7.70;103346.00;;;;5088735;28;20202;-74
2023/01/25 07:38:38;;;;;;;20.35;12.55;;;;;7.70;103341.00;;;;5083196;28;20737;-75
2023/01/25 07:41:06;;;;;;;19.00;11.75;;;;;7.70;103342.00;;;;5073334;28;20215;-74
2023/01/25 07:43:33;;;;;;;21.80;13.77;;;;;7.70;103343.00;;;;5078037;28;20572;-74
2023/01/25 07:46:02;;;;;;;18.42;12.25;;;;;7.60;103347.00;;;;5073205;28;20230;-74
2023/01/25 07:48:31;;;;;;;20.65;12.55;;;;;7.60;103348.00;;;;5071282;28;20284;-74
2023/01/25 07:51:21;;;;;;;19.65;12.40;;;;;7.60;103345.00;;;;5074469;28;20195;-74
2023/01/25 07:53:50;;;;;;;22.95;13.95;;;;;7.60;103344.00;;;;5070644;28;20213;-74
2023/01/25 07:56:18;;;;;;;21.33;12.77;;;;;7.60;103333.00;;;;5070201;28;20199;-74
2023/01/25 07:58:46;;;;;;;19.95;12.20;;;;;7.60;103329.00;;;;5075474;28;20207;-74
2023/01/25 08:01:16;;;;;;;19.45;12.23;;;;;7.60;103337.00;;;;5070466;28;20223;-74
2023/01/25 08:03:44;;;;;;;21.52;13.00;;;;;7.60;103336.00;;;;5070548;28;20202;-74
2023/01/25 08:06:13;;;;;;;23.60;14.07;;;;;7.60;103329.00;;;;5080703;28;20198;-74
2023/01/25 08:08:43;;;;;;;20.88;12.48;;;;;7.60;103320.00;;;;5083908;28;20217;-74
2023/01/25 08:11:12;;;;;;;21.02;12.52;;;;;7.60;103319.00;;;;5088741;28;20675;-74
2023/01/25 08:13:40;;;;;;;21.75;13.73;;;;;7.60;103312.00;;;;5087892;28;20613;-74
2023/01/25 08:16:07;;;;;;;22.17;14.38;;;;;7.60;103308.00;;;;5079665;28;20198;-74
2023/01/25 08:18:34;;;;;;;21.23;13.27;;;;;7.60;103315.00;;;;5069160;28;20194;-74
2023/01/25 08:21:02;;;;;;;21.17;13.27;;;;;7.60;103322.00;;;;5070080;28;20215;-74
2023/01/25 08:23:31;;;;;;;19.48;11.55;;;;;7.60;103322.00;;;;5080244;28;20202;-74
2023/01/25 08:26:02;;;;;;;20.52;12.07;;;;;7.50;103318.00;;;;5071535;28;20203;-74
2023/01/25 08:28:29;;;;;;;19.35;12.35;;;;;7.60;103319.00;;;;5074493;28;20203;-74
2023/01/25 08:31:06;;;;;;;21.20;12.93;;;;;7.50;103311.00;;;;5075881;28;20195;-74
2023/01/25 08:33:33;;;;;;;20.02;12.50;;;;;7.60;103319.00;;;;5088017;28;20194;-74
2023/01/25 08:36:00;;;;;;;22.92;12.68;;;;;7.50;103317.00;;;;5072910;28;20587;-74
2023/01/25 08:38:28;;;;;;;22.80;13.82;;;;;7.60;103318.00;;;;5069998;28;20195;-74
2023/01/25 08:40:56;;;;;;;19.58;12.70;;;;;7.60;103316.00;;;;5069827;28;20571;-74
2023/01/25 08:43:23;;;;;;;22.58;12.15;;;;;7.60;103312.00;;;;5074387;28;20202;-74
2023/01/25 08:45:57;;;;;;;18.45;11.05;;;;;7.50;103316.00;;;;5069533;28;20226;-74
2023/01/25 08:48:24;;;;;;;20.05;12.35;;;;;7.60;103311.00;;;;5072450;28;20247;-74
2023/01/25 08:50:52;;;;;;;21.52;12.45;;;;;7.60;103308.00;;;;5077728;28;20208;-74
2023/01/25 08:53:19;;;;;;;21.05;13.18;;;;;7.60;103310.00;;;;5071570;28;20199;-74
2023/01/25 08:55:47;;;;;;;20.58;13.23;;;;;7.60;103304.00;;;;5085984;28;20225;-75
2023/01/25 08:58:18;;;;;;;20.75;12.15;;;;;7.50;103306.00;;;;5090028;28;20708;-74
2023/01/25 09:00:46;;;;;;;22.30;13.13;;;;;7.60;103300.00;;;;5089491;28;20361;-74
2023/01/25 09:03:13;;;;;;;20.95;12.05;;;;;7.60;103291.00;;;;5088860;28;20201;-74
2023/01/25 09:05:41;;;;;;;22.58;12.52;;;;;7.60;103290.00;;;;5079150;28;20817;-75
2023/01/25 09:08:10;;;;;;;21.83;13.23;;;;;7.60;103290.00;;;;5086423;28;20190;-74
2023/01/25 09:10:38;;;;;;;22.85;13.10;;;;;7.60;103292.00;;;;5088254;28;20244;-74
2023/01/25 09:13:05;;;;;;;22.27;13.68;;;;;7.60;103291.00;;;;5088079;28;20213;-74
2023/01/25 09:15:34;;;;;;;23.27;14.07;;;;;7.60;103288.00;;;;5078812;28;20195;-74
2023/01/25 09:18:01;;;;;;;22.17;13.52;;;;;7.70;103294.00;;;;5072610;28;20191;-74
2023/01/25 09:20:28;;;;;;;20.02;12.43;;;;;7.70;103283.00;;;;5068519;28;20249;-74
2023/01/25 09:22:56;;;;;;;23.90;14.07;;;;;7.70;103279.00;;;;5074929;28;20840;-74
2023/01/25 09:25:23;;;;;;;24.30;14.15;;;;;7.70;103281.00;;;;5071558;28;20195;-74
2023/01/25 09:27:51;;;;;;;21.70;13.98;;;;;7.70;103284.00;;;;5079047;28;20199;-74
2023/01/25 09:30:18;;;;;;;22.38;12.68;;;;;7.70;103284.00;;;;5075221;28;20203;-74
2023/01/25 09:32:49;;;;;;;22.10;13.18;;;;;7.60;103279.00;;;;5079688;28;20225;-74
2023/01/25 09:35:16;;;;;;;23.42;13.75;;;;;7.70;103273.00;;;;5076571;28;20567;-74
2023/01/25 09:37:44;;;;;;;23.02;13.50;;;;;7.70;103277.00;;;;5083997;28;20202;-74
2023/01/25 09:40:20;;;;;;;20.27;13.07;;;;;7.60;103279.00;;;;5072550;28;20210;-74
2023/01/25 09:42:58;;;;;;;22.23;13.25;;;;;7.50;103277.00;;;;5079233;28;20205;-74
2023/01/25 09:45:32;;;;;;;23.52;12.88;;;;;7.60;103283.00;;;;5074413;28;20227;-74
2023/01/25 09:48:12;;;;;;;23.60;13.65;;;;;7.50;103268.00;;;;5080658;28;20253;-74
2023/01/25 09:50:53;;;;;;;24.90;14.55;;;;;7.50;103263.00;;;;5067754;28;20676;-74
2023/01/25 09:53:25;;;;;;;24.52;14.07;;;;;7.50;103267.00;;;;5071203;28;20191;-74
2023/01/25 09:55:54;;;;;;;25.50;14.23;;;;;7.50;103266.00;;;;5086393;28;20190;-74
2023/01/25 09:58:27;;;;;;;25.25;13.55;;;;;7.50;103264.00;;;;5088066;28;20190;-74
2023/01/25 10:01:14;;;;;;;23.63;14.10;;;;;7.40;103259.00;;;;5088341;28;20225;-74
2023/01/25 10:03:52;;;;;;;25.98;14.50;;;;;7.40;103260.00;;;;5076800;28;20205;-74
2023/01/25 10:06:23;;;;;;;21.85;13.00;;;;;7.50;103263.00;;;;5081104;28;20205;-74
2023/01/25 10:08:58;;;;;;;23.45;13.30;;;;;7.40;103258.00;;;;5067903;28;20202;-74
2023/01/25 10:11:28;;;;;;;25.67;15.35;;;;;7.50;103257.00;;;;5083758;28;20335;-74
2023/01/25 10:13:57;;;;;;;25.98;14.60;;;;;7.50;103253.00;;;;5087043;28;20262;-74
2023/01/25 10:16:29;;;;;;;26.85;15.02;;;;;7.50;103245.00;;;;5086158;28;20201;-74
2023/01/25 10:19:07;;;;;;;20.98;12.23;;;;;7.40;103238.00;;;;5086385;28;20197;-74
2023/01/25 10:21:39;;;;;;;22.25;13.50;;;;;7.40;103235.00;;;;5077329;28;20457;-74
2023/01/25 10:24:31;;;;;;;20.40;12.35;;;;;7.40;103238.00;;;;5075667;28;20677;-74
2023/01/25 10:27:08;;;;;;;19.77;11.65;;;;;7.40;103226.00;;;;5076978;28;20209;-74
2023/01/25 10:29:37;;;;;;;24.65;14.20;;;;;7.40;103224.00;;;;5077536;28;20194;-74
2023/01/25 10:32:16;;;;;;;22.85;12.88;;;;;7.40;103223.00;;;;5087237;28;20726;-74
2023/01/25 10:34:49;;;;;;;23.23;13.50;;;;;7.50;103219.00;;;;5076257;28;20202;-74
2023/01/25 10:37:21;;;;;;;22.05;12.80;;;;;7.50;103214.00;;;;5081803;28;20673;-74
2023/01/25 10:39:56;;;;;;;21.52;12.98;;;;;7.60;103210.00;;;;5067857;28;20206;-75
2023/01/25 10:42:27;;;;;;;26.30;14.30;;;;;7.60;103202.00;;;;5078986;28;20225;-74
2023/01/25 10:44:54;;;;;;;21.80;12.25;;;;;7.70;103206.00;;;;5077750;28;20206;-74
2023/01/25 10:47:26;;;;;;;26.20;15.30;;;;;7.70;103189.00;;;;5081225;28;20214;-74
2023/01/25 10:49:56;;;;;;;25.45;14.35;;;;;7.70;103188.00;;;;5083289;28;20199;-74
2023/01/25 10:52:25;;;;;;;22.75;12.90;;;;;7.70;103190.00;;;;5083669;28;20624;-74
2023/01/25 10:55:13;;;;;;;24.13;13.82;;;;;7.70;103196.00;;;;5072375;28;20560;-74
2023/01/25 10:57:44;;;;;;;23.02;13.52;;;;;7.80;103185.00;;;;5081168;28;20199;-74
2023/01/25 11:00:25;;;;;;;23.25;13.57;;;;;7.70;103178.00;;;;5085081;28;20198;-74
2023/01/25 11:02:52;;;;;;;22.10;13.05;;;;;7.80;103168.00;;;;5080574;28;20751;-74
2023/01/25 11:05:30;;;;;;;21.98;12.18;;;;;7.80;103168.00;;;;5087718;28;20206;-74
2023/01/25 11:07:59;;;;;;;22.52;12.50;;;;;7.90;103164.00;;;;5086970;28;20186;-74
2023/01/25 11:10:31;;;;;;;22.17;13.10;;;;;7.90;103166.00;;;;5073153;28;20207;-74
2023/01/25 11:13:24;;;;;;;22.30;13.63;;;;;7.90;103157.00;;;;5084431;28;20216;-74
2023/01/25 11:15:54;;;;;;;21.80;13.07;;;;;8.00;103142.00;;;;5082645;28;20653;-74
2023/01/25 11:18:24;;;;;;;23.77;14.13;;;;;8.00;103138.00;;;;5081476;28;20206;-74
2023/01/25 11:21:07;;;;;;;20.63;12.02;;;;;7.90;103130.00;;;;5082535;28;20568;-75
2023/01/25 11:23:35;;;;;;;29.48;13.15;;;;;8.00;103129.00;;;;5074335;28;20218;-75
2023/01/25 11:26:15;;;;;;;26.27;14.10;;;;;7.90;103123.00;;;;5086377;28;20226;-75
2023/01/25 11:28:44;;;;;;;21.52;12.65;;;;;8.00;103116.00;;;;5081581;28;20206;-75
2023/01/25 11:31:13;;;;;;;23.65;13.43;;;;;8.00;103114.00;;;;5070244;28;20207;-76
2023/01/25 11:33:41;;;;;;;20.85;12.27;;;;;8.00;103112.00;;;;5089800;28;20209;-76
2023/01/25 11:36:24;;;;;;;21.05;12.25;;;;;7.90;103100.00;;;;5073597;28;20202;-76
2023/01/25 11:39:08;;;;;;;20.65;11.70;;;;;7.90;103089.00;;;;5086114;28;20198;-75
2023/01/25 11:41:47;;;;;;;22.15;12.27;;;;;7.90;103080.00;;;;5088589;28;20225;-75
2023/01/25 11:44:41;;;;;;;21.63;12.75;;;;;7.90;103080.00;;;;5071697;28;20206;-75
2023/01/25 11:47:22;;;;;;;21.88;12.73;;;;;8.00;103080.00;;;;5073939;28;20676;-73
2023/01/25 11:50:01;;;;;;;21.48;12.63;;;;;8.00;103071.00;;;;5075976;28;20593;-73
2023/01/25 11:52:39;;;;;;;21.55;13.05;;;;;8.00;103064.00;;;;5076435;28;20211;-73
2023/01/25 11:55:23;;;;;;;20.80;12.32;;;;;7.90;103050.00;;;;5083997;28;20198;-73
2023/01/25 11:58:07;;;;;;;22.33;13.15;;;;;7.90;103043.00;;;;5083511;28;20195;-75
2023/01/25 12:00:49;;;;;;;24.40;11.95;;;;;7.90;103035.00;;;;5089036;28;20201;-73
2023/01/25 12:03:47;;;;;;;18.70;10.48;;;;;7.90;103031.00;;;;5089335;28;20580;-73
2023/01/25 12:06:22;;;;;;;21.02;12.43;;;;;8.00;103026.00;;;;5081552;28;20198;-73
2023/01/25 12:09:11;;;;;;;21.17;12.07;;;;;7.90;103014.00;;;;5070290;28;20490;-73
2023/01/25 12:11:51;;;;;;;22.75;13.25;;;;;7.90;103009.00;;;;5069822;28;20189;-73